createdAt,value
2019-02-21T00:01:18.706Z,100965.35
2019-02-21T00:03:48.165Z,100965.61
2019-02-21T00:09:07.430Z,100972.95
2019-02-21T00:11:37.594Z,100972.99
2019-02-21T00:44:15.152Z,100971.69
2019-02-21T00:46:44.321Z,100973.27
2019-02-21T00:49:13.623Z,100973.95
2019-02-21T00:51:43.075Z,100969.30
2019-02-21T00:54:13.042Z,100980.34
2019-02-21T00:56:42.678Z,100981.30
2019-02-21T01:16:00.182Z,100988.89
2019-02-21T01:18:29.541Z,100994.36
2019-02-21T01:20:58.924Z,100998.17
2019-02-21T01:23:28.202Z,100998.58
2019-02-21T01:25:57.660Z,101001.91
2019-02-21T01:28:26.892Z,101005.58
2019-02-21T01:30:57.210Z,101002.45
2019-02-21T01:33:27.303Z,101000.67
2019-02-21T01:35:56.512Z,101008.14
2019-02-21T02:19:46.019Z,101004.20
2019-02-21T02:22:15.198Z,101003.50
2019-02-21T02:24:45.245Z,101010.28
2019-02-21T02:27:14.702Z,101003.50
2019-02-21T02:29:44.096Z,101001.16
2019-02-21T02:32:13.485Z,101000.62
2019-02-21T02:34:43.217Z,101003.30
2019-02-21T02:37:12.581Z,101002.80
2019-02-21T02:44:56.605Z,101008.12
2019-02-21T02:47:25.785Z,100999.78
2019-02-21T02:49:55.013Z,101010.41
2019-02-21T02:52:24.688Z,101010.67
2019-02-21T02:54:54.065Z,101022.36
2019-02-21T03:08:21.102Z,101021.62
2019-02-21T03:10:50.293Z,101025.28
2019-02-21T03:13:19.516Z,101022.89
2019-02-21T03:15:48.716Z,101023.20
2019-02-21T03:18:18.202Z,101024.92
2019-02-21T03:20:47.483Z,101024.55
2019-02-21T03:23:16.978Z,101025.42
2019-02-21T03:25:46.476Z,101026.72
2019-02-21T03:28:15.711Z,101019.22
2019-02-21T03:30:44.955Z,101015.77
2019-02-21T03:33:14.202Z,101016.89
2019-02-21T03:35:43.674Z,101021.66
2019-02-21T03:38:12.887Z,101012.55
2019-02-21T03:40:42.431Z,101009.05
2019-02-21T03:43:11.638Z,101001.77
2019-02-21T03:45:40.838Z,100998.87
2019-02-21T03:48:10.361Z,101004.05
2019-02-21T03:50:39.594Z,101004.48
2019-02-21T03:53:08.817Z,100998.76
2019-02-21T03:55:38.030Z,100996.95
2019-02-21T03:58:07.247Z,100987.12
2019-02-21T04:00:36.772Z,100980.25
2019-02-21T04:03:05.980Z,100985.39
2019-02-21T04:05:35.478Z,100972.16
2019-02-21T04:08:04.710Z,100984.34
2019-02-21T04:10:34.239Z,100978.83
2019-02-21T04:13:03.454Z,100977.95
2019-02-21T04:15:32.664Z,100975.36
2019-02-21T04:18:01.872Z,100977.58
2019-02-21T04:20:31.455Z,100980.44
2019-02-21T04:23:00.659Z,100980.05
2019-02-21T04:25:29.925Z,100977.05
2019-02-21T04:27:59.377Z,100970.08
2019-02-21T04:30:28.617Z,100967.41
2019-02-21T04:32:57.807Z,100970.01
2019-02-21T04:35:27.312Z,100972.16
2019-02-21T04:37:56.536Z,100974.11
2019-02-21T04:40:26.119Z,100977.08
2019-02-21T04:42:55.975Z,100973.11
2019-02-21T04:45:25.219Z,100967.57
2019-02-21T04:47:54.426Z,100961.36
2019-02-21T04:50:24.197Z,100958.77
2019-02-21T04:52:53.884Z,100954.03
2019-02-21T04:55:23.142Z,100943.33
2019-02-21T04:57:52.455Z,100932.77
2019-02-21T05:00:22.671Z,100929.14
2019-02-21T05:02:52.576Z,100915.67
2019-02-21T05:05:21.985Z,100917.84
2019-02-21T05:07:51.891Z,100918.95
2019-02-21T05:10:21.258Z,100923.99
2019-02-21T05:12:50.584Z,100922.08
2019-02-21T05:15:19.820Z,100925.13
2019-02-21T05:17:49.062Z,100917.91
2019-02-21T05:20:18.296Z,100932.50
2019-02-21T05:22:47.803Z,100935.09
2019-02-21T05:25:17.100Z,100935.30
2019-02-21T05:30:43.639Z,100935.27
2019-02-21T05:33:31.773Z,100934.77
2019-02-21T06:08:32.621Z,100980.16
2019-02-21T06:43:57.059Z,101005.94
2019-02-21T07:48:20.246Z,101087.11
2019-02-21T08:04:31.819Z,101103.88
2019-02-21T08:07:01.094Z,101095.09
2019-02-21T08:09:30.333Z,101099.97
2019-02-21T08:11:59.569Z,101094.70
2019-02-21T08:14:29.066Z,101091.16
2019-02-21T08:16:58.787Z,101097.17
2019-02-21T08:19:28.199Z,101089.20
2019-02-21T08:22:00.245Z,101088.91
2019-02-21T08:40:53.590Z,101105.72
2019-02-21T08:43:23.608Z,101111.53
2019-02-21T08:45:52.857Z,101113.81
2019-02-21T08:48:22.129Z,101108.89
2019-02-21T08:50:51.671Z,101110.20
2019-02-21T08:53:20.918Z,101117.16
2019-02-21T08:55:50.294Z,101117.44
2019-02-21T08:58:19.796Z,101117.07
2019-02-21T09:01:28.805Z,101118.91
2019-02-21T09:04:09.594Z,101119.13
2019-02-21T09:06:29.338Z,101115.00
2019-02-21T09:08:59.064Z,101117.00
2019-02-21T09:11:28.387Z,101104.39
2019-02-21T09:16:32.369Z,101068.53
2019-02-21T09:19:01.619Z,101053.89
2019-02-21T09:21:30.856Z,101038.06
2019-02-21T09:24:00.729Z,101038.59
2019-02-21T09:26:30.364Z,101029.78
2019-02-21T09:29:00.205Z,101028.98
2019-02-21T09:31:30.198Z,101028.15
2019-02-21T09:33:59.598Z,101025.75
2019-02-21T09:36:28.877Z,101025.74
2019-02-21T09:41:33.008Z,101022.72
2019-02-21T09:44:02.950Z,101016.08
2019-02-21T09:46:32.721Z,101023.70
2019-02-21T09:49:03.057Z,101021.84
2019-02-21T09:51:36.516Z,101035.81
2019-02-21T10:26:09.395Z,101086.81
2019-02-21T10:28:38.867Z,101081.61
2019-02-21T10:31:09.134Z,101079.22
2019-02-21T10:33:46.580Z,101091.43
2019-02-21T10:36:10.309Z,101099.38
2019-02-21T10:38:39.776Z,101097.86
2019-02-21T10:41:09.689Z,101090.09
2019-02-21T10:43:39.542Z,101093.33
2019-02-21T10:46:09.064Z,101077.47
2019-02-21T10:48:38.827Z,101086.92
2019-02-21T10:51:22.338Z,101082.34
2019-02-21T11:17:57.338Z,101103.05
2019-02-21T11:20:26.822Z,101108.83
2019-02-21T11:22:56.375Z,101112.18
2019-02-21T11:25:26.275Z,101114.59
2019-02-21T11:27:56.410Z,101111.87
2019-02-21T11:30:25.605Z,101111.95
2019-02-21T11:32:55.143Z,101102.97
2019-02-21T11:35:24.448Z,101108.94
2019-02-21T11:37:54.234Z,101098.94
2019-02-21T11:41:03.825Z,101098.41
2019-02-21T11:43:33.318Z,101108.35
2019-02-21T11:48:51.230Z,101104.56
2019-02-21T11:51:21.248Z,101104.59
2019-02-21T11:53:50.893Z,101106.05
2019-02-21T11:56:20.542Z,101108.47
2019-02-21T11:58:50.048Z,101104.95
2019-02-21T12:01:19.972Z,101114.88
2019-02-21T12:03:49.505Z,101117.45
2019-02-21T12:06:19.282Z,101119.30
2019-02-21T12:08:48.846Z,101128.56
2019-02-21T12:11:18.367Z,101118.23
2019-02-21T12:13:47.913Z,101128.53
2019-02-21T12:16:17.106Z,101118.30
2019-02-21T12:18:46.703Z,101126.77
2019-02-21T12:21:16.824Z,101128.27
2019-02-21T12:23:46.655Z,101135.73
2019-02-21T12:26:35.140Z,101136.52
2019-02-21T12:29:04.845Z,101135.83
2019-02-21T12:31:34.582Z,101130.30
2019-02-21T12:34:04.140Z,101128.52
2019-02-21T12:36:34.038Z,101120.23
2019-02-21T12:41:59.252Z,101139.03
2019-02-21T12:44:29.130Z,101141.98
2019-02-21T12:46:58.521Z,101134.09
2019-02-21T12:49:28.229Z,101133.23
2019-02-21T12:51:57.732Z,101145.45
2019-02-21T12:54:27.258Z,101148.03
2019-02-21T12:56:56.734Z,101144.68
2019-02-21T12:59:25.994Z,101149.81
2019-02-21T13:01:55.503Z,101138.19
2019-02-21T13:04:25.025Z,101132.46
2019-02-21T13:06:54.308Z,101141.33
2019-02-21T13:09:24.229Z,101143.97
2019-02-21T13:11:53.852Z,101141.78
2019-02-21T13:14:23.188Z,101141.38
2019-02-21T13:16:52.748Z,101140.42
2019-02-21T13:19:22.299Z,101148.61
2019-02-21T13:21:51.848Z,101144.47
2019-02-21T13:24:21.477Z,101146.13
2019-02-21T13:26:51.389Z,101139.54
2019-02-21T13:29:20.631Z,101147.77
2019-02-21T13:31:50.733Z,101147.91
2019-02-21T13:34:20.805Z,101150.02
2019-02-21T13:36:50.741Z,101139.75
2019-02-21T13:39:21.105Z,101134.44
2019-02-21T13:41:50.455Z,101139.78
2019-02-21T13:44:19.721Z,101141.38
2019-02-21T13:46:48.941Z,101135.02
2019-02-21T13:49:37.389Z,101139.92
2019-02-21T13:52:07.412Z,101124.51
2019-02-21T13:54:36.919Z,101106.86
2019-02-21T13:57:25.086Z,101083.89
2019-02-21T13:59:54.894Z,101074.89
2019-02-21T14:02:24.530Z,101070.42
2019-02-21T14:04:54.877Z,101077.17
2019-02-21T14:07:24.774Z,101071.64
2019-02-21T14:09:54.089Z,101073.23
2019-02-21T14:12:26.287Z,101082.23
2019-02-21T14:14:55.220Z,101087.32
2019-02-21T14:17:24.756Z,101089.88
2019-02-21T14:19:54.507Z,101101.24
2019-02-21T14:22:24.039Z,101105.86
2019-02-21T14:24:56.249Z,101111.81
2019-02-21T14:27:26.200Z,101112.42
2019-02-21T14:29:55.826Z,101125.00
2019-02-21T14:32:25.065Z,101121.13
2019-02-21T14:34:55.002Z,101121.70
2019-02-21T14:37:24.215Z,101135.77
2019-02-21T14:39:54.207Z,101135.33
2019-02-21T14:42:23.738Z,101131.02
2019-02-21T14:44:56.411Z,101129.09
2019-02-21T14:47:25.800Z,101142.30
2019-02-21T14:49:55.330Z,101132.11
2019-02-21T14:52:24.744Z,101129.22
2019-02-21T14:54:54.639Z,101135.86
2019-02-21T14:57:24.365Z,101137.02
2019-02-21T14:59:54.906Z,101136.43
2019-02-21T15:02:25.149Z,101136.95
2019-02-21T15:04:57.916Z,101137.50
2019-02-21T15:07:29.956Z,101134.56
2019-02-21T15:18:22.700Z,101135.05
2019-02-21T15:20:52.878Z,101133.81
2019-02-21T15:23:24.847Z,101127.08
2019-02-21T15:25:56.982Z,101135.65
2019-02-21T15:51:14.588Z,101122.55
2019-02-21T15:53:44.554Z,101120.88
2019-02-21T15:56:16.918Z,101113.39
2019-02-21T15:58:46.878Z,101117.63
2019-02-21T16:01:16.128Z,101114.38
2019-02-21T16:03:45.701Z,101113.59
2019-02-21T16:06:15.354Z,101119.34
2019-02-21T16:08:45.389Z,101120.41
2019-02-21T16:11:16.715Z,101111.38
2019-02-21T16:13:46.846Z,101117.03
2019-02-21T16:18:52.995Z,101111.96
2019-02-21T16:21:22.542Z,101104.33
2019-02-21T16:23:52.731Z,101108.16
2019-02-21T16:26:22.670Z,101113.65
2019-02-21T16:28:52.479Z,101115.52
2019-02-21T16:31:22.502Z,101122.47
2019-02-21T16:33:52.543Z,101116.28
2019-02-21T16:36:22.105Z,101118.16
2019-02-21T16:38:51.934Z,101127.53
2019-02-21T16:41:21.882Z,101125.37
2019-02-21T16:43:51.726Z,101129.42
2019-02-21T16:46:21.623Z,101127.70
2019-02-21T16:48:51.135Z,101130.80
2019-02-21T16:51:40.341Z,101133.19
2019-02-21T16:54:10.363Z,101138.14
2019-02-21T16:56:39.918Z,101135.49
2019-02-21T16:59:09.381Z,101130.19
2019-02-21T17:01:38.960Z,101135.22
2019-02-21T17:04:08.452Z,101135.59
2019-02-21T17:06:38.001Z,101136.33
2019-02-21T17:09:47.346Z,101147.82
2019-02-21T17:12:17.176Z,101148.81
2019-02-21T17:14:47.098Z,101145.38
2019-02-21T17:17:16.350Z,101151.77
2019-02-21T17:22:34.341Z,101164.01
2019-02-21T17:25:04.742Z,101171.58
2019-02-21T17:27:34.516Z,101183.81
2019-02-21T17:33:13.502Z,101189.00
2019-02-21T17:35:42.713Z,101191.89
2019-02-21T17:38:14.380Z,101186.46
2019-02-21T17:40:43.248Z,101185.98
2019-02-21T17:43:13.056Z,101181.99
2019-02-21T17:45:43.108Z,101180.02
2019-02-21T17:48:12.763Z,101174.28
2019-02-21T17:50:42.363Z,101177.15
2019-02-21T17:53:11.618Z,101172.44
2019-02-21T17:55:41.205Z,101172.09
2019-02-21T17:58:11.336Z,101176.97
2019-02-21T18:00:40.895Z,101171.58
2019-02-21T18:03:10.135Z,101183.16
2019-02-21T18:05:39.722Z,101187.20
2019-02-21T18:08:09.396Z,101193.77
2019-02-21T18:10:38.595Z,101206.34
2019-02-21T18:13:08.177Z,101210.34
2019-02-21T18:15:37.544Z,101209.39
2019-02-21T18:18:06.804Z,101211.34
2019-02-21T18:20:36.055Z,101216.75
2019-02-21T18:23:05.301Z,101215.05
2019-02-21T18:25:37.983Z,101221.64
2019-02-21T18:28:07.990Z,101219.89
2019-02-21T18:30:37.250Z,101223.70
2019-02-21T18:33:06.750Z,101224.60
2019-02-21T18:35:37.036Z,101235.02
2019-02-21T18:38:06.672Z,101238.05
2019-02-21T18:40:36.330Z,101244.96
2019-02-21T18:43:06.413Z,101248.92
2019-02-21T18:45:35.973Z,101247.09
2019-02-21T18:48:05.479Z,101254.13
2019-02-21T18:50:38.462Z,101262.50
2019-02-21T18:53:06.712Z,101272.16
2019-02-21T18:55:36.027Z,101263.11
2019-02-21T18:58:05.525Z,101270.64
2019-02-21T19:00:35.060Z,101271.01
2019-02-21T19:03:04.320Z,101273.20
2019-02-21T19:05:36.204Z,101264.22
2019-02-21T19:08:05.663Z,101264.54
2019-02-21T19:10:36.158Z,101279.98
2019-02-21T19:13:07.644Z,101280.14
2019-02-21T19:15:56.110Z,101273.71
2019-02-21T19:18:25.938Z,101272.91
2019-02-21T19:20:56.190Z,101279.53
2019-02-21T19:23:26.393Z,101273.70
2019-02-21T19:25:55.752Z,101283.81
2019-02-21T19:28:25.104Z,101275.66
2019-02-21T19:30:59.028Z,101285.11
2019-02-21T19:33:29.099Z,101285.63
2019-02-21T19:35:58.819Z,101280.13
2019-02-21T19:38:28.867Z,101274.86
2019-02-21T19:40:59.167Z,101272.89
2019-02-21T19:44:09.100Z,101285.83
2019-02-21T19:46:39.020Z,101284.59
2019-02-21T19:49:08.277Z,101296.44
2019-02-21T19:51:37.861Z,101298.09
2019-02-21T19:54:07.467Z,101300.68
2019-02-21T19:56:37.150Z,101301.48
2019-02-21T19:59:06.538Z,101302.98
2019-02-21T20:01:35.897Z,101309.83
2019-02-21T20:04:05.286Z,101310.67
2019-02-21T20:06:35.731Z,101315.51
2019-02-21T20:09:05.905Z,101313.47
2019-02-21T20:11:36.088Z,101309.85
2019-02-21T20:14:07.389Z,101311.14
2019-02-21T20:16:37.218Z,101305.48
2019-02-21T20:19:06.989Z,101310.44
2019-02-21T20:21:36.285Z,101319.58
2019-02-21T20:24:05.715Z,101320.93
2019-02-21T20:26:35.977Z,101328.31
2019-02-21T20:29:05.278Z,101321.80
2019-02-21T20:34:09.877Z,101335.88
2019-02-21T20:36:50.455Z,101337.45
2019-02-21T20:39:11.208Z,101344.23
2019-02-21T20:41:40.643Z,101341.93
2019-02-21T20:44:09.920Z,101350.64
2019-02-21T20:46:39.947Z,101360.41
2019-02-21T20:49:29.182Z,101355.40
2019-02-21T20:51:58.540Z,101367.22
2019-02-21T20:54:28.195Z,101360.82
2019-02-21T20:56:58.683Z,101357.79
2019-02-21T20:59:28.961Z,101357.79
2019-02-21T21:01:58.270Z,101358.48
2019-02-21T21:04:27.603Z,101359.17
2019-02-21T21:06:57.613Z,101361.75
2019-02-21T21:09:27.435Z,101359.92
2019-02-21T21:11:57.198Z,101367.77
2019-02-21T21:14:26.797Z,101370.71
2019-02-21T21:16:56.479Z,101367.56
2019-02-21T21:19:26.720Z,101368.17
2019-02-21T21:21:56.080Z,101367.42
2019-02-21T21:24:25.453Z,101368.55
2019-02-21T21:26:55.088Z,101377.17
2019-02-21T21:29:24.784Z,101372.18
2019-02-21T21:31:54.520Z,101369.03
2019-02-21T21:34:24.068Z,101373.23
2019-02-21T21:36:53.462Z,101372.05
2019-02-21T21:39:23.108Z,101380.51
2019-02-21T21:41:52.736Z,101385.61
2019-02-21T21:44:22.360Z,101383.23
2019-02-21T21:46:52.022Z,101388.06
2019-02-21T21:49:21.685Z,101382.63
2019-02-21T21:51:55.231Z,101375.63
2019-02-21T21:54:25.914Z,101377.23
2019-02-21T21:57:35.811Z,101380.30
2019-02-21T22:00:06.955Z,101379.27
2019-02-21T22:05:12.411Z,101386.92
2019-02-21T22:07:41.918Z,101385.20
2019-02-21T22:10:12.112Z,101392.81
2019-02-21T22:12:41.615Z,101396.13
2019-02-21T22:15:12.184Z,101398.31
2019-02-21T22:17:42.279Z,101406.50
2019-02-21T22:22:41.278Z,101413.37
2019-02-21T22:25:12.018Z,101422.86
2019-02-21T22:27:41.538Z,101419.55
2019-02-21T22:30:12.789Z,101424.30
2019-02-21T22:33:01.090Z,101423.16
2019-02-21T22:35:30.291Z,101421.20
2019-02-21T22:37:59.816Z,101417.73
2019-02-21T22:40:29.070Z,101418.86
2019-02-21T22:42:58.680Z,101417.05
2019-02-21T22:45:27.894Z,101418.92
2019-02-21T22:47:58.163Z,101414.33
2019-02-21T22:50:28.265Z,101421.34
2019-02-21T22:52:58.053Z,101416.44
2019-02-21T22:55:28.108Z,101417.19
2019-02-21T22:57:58.857Z,101415.59
2019-02-21T23:01:07.196Z,101416.44
2019-02-21T23:07:30.006Z,101422.09
2019-02-21T23:09:59.512Z,101425.27
2019-02-21T23:12:28.816Z,101429.34
2019-02-21T23:14:58.649Z,101428.30
2019-02-21T23:17:28.132Z,101443.24
2019-02-21T23:19:57.705Z,101445.12
2019-02-21T23:22:27.512Z,101444.83
2019-02-21T23:24:57.417Z,101445.41
2019-02-21T23:27:27.343Z,101445.95
2019-02-21T23:29:56.891Z,101439.12
2019-02-21T23:32:26.377Z,101444.14
2019-02-21T23:37:52.263Z,101446.91
2019-02-21T23:43:16.899Z,101458.64
2019-02-21T23:45:46.156Z,101466.64
2019-02-21T23:48:15.980Z,101466.12
2019-02-21T23:50:45.757Z,101465.66
2019-02-21T23:53:14.991Z,101466.41
2019-02-21T23:55:45.062Z,101465.19
2019-02-21T23:58:14.567Z,101467.53
